createdAt,value
2018-06-10T00:00:13.494Z,20.50
2018-06-10T00:02:41.810Z,20.40
2018-06-10T00:05:10.131Z,20.30
2018-06-10T00:07:38.451Z,20.20
2018-06-10T00:10:06.755Z,20.20
2018-06-10T00:12:35.076Z,20.10
2018-06-10T00:15:03.367Z,20.10
2018-06-10T00:17:31.687Z,20.00
2018-06-10T00:20:00.026Z,20.00
2018-06-10T00:22:28.342Z,19.90
2018-06-10T00:24:56.638Z,19.90
2018-06-10T00:27:24.974Z,19.90
2018-06-10T00:29:53.266Z,19.90
2018-06-10T00:32:21.590Z,19.90
2018-06-10T00:34:49.994Z,20.00
2018-06-10T00:37:18.317Z,20.00
2018-06-10T00:39:46.607Z,19.90
2018-06-10T00:42:14.904Z,19.90
2018-06-10T00:44:43.243Z,19.90
2018-06-10T00:47:11.564Z,19.90
2018-06-10T00:49:39.879Z,19.90
2018-06-10T00:52:08.174Z,19.90
2018-06-10T00:54:36.502Z,19.80
2018-06-10T00:57:04.899Z,19.80
2018-06-10T00:59:33.222Z,19.80
2018-06-10T01:02:01.669Z,19.70
2018-06-10T01:04:30.008Z,19.70
2018-06-10T01:06:58.302Z,19.70
2018-06-10T01:09:26.623Z,19.70
2018-06-10T01:11:54.943Z,19.70
2018-06-10T01:14:23.235Z,19.70
2018-06-10T01:16:51.552Z,19.60
2018-06-10T01:19:19.831Z,19.60
2018-06-10T01:21:48.156Z,19.50
2018-06-10T01:24:16.446Z,19.50
2018-06-10T01:26:50.113Z,19.40
2018-06-10T01:29:19.094Z,19.30
2018-06-10T01:31:47.421Z,19.20
2018-06-10T01:34:15.710Z,19.20
2018-06-10T01:36:44.018Z,19.10
2018-06-10T01:39:12.298Z,19.10
2018-06-10T01:41:40.934Z,19.00
2018-06-10T01:44:09.218Z,19.00
2018-06-10T01:46:37.503Z,18.90
2018-06-10T01:49:05.826Z,18.90
2018-06-10T01:51:34.110Z,18.90
2018-06-10T01:54:02.439Z,18.90
2018-06-10T01:56:31.319Z,18.90
2018-06-10T01:58:59.639Z,18.80
2018-06-10T02:01:27.930Z,18.80
2018-06-10T02:03:56.275Z,18.80
2018-06-10T02:06:24.567Z,18.80
2018-06-10T02:08:53.142Z,18.80
2018-06-10T02:11:21.439Z,18.80
2018-06-10T02:13:49.733Z,18.70
2018-06-10T02:16:18.046Z,18.70
2018-06-10T02:18:46.384Z,18.70
2018-06-10T02:21:14.698Z,18.60
2018-06-10T02:23:43.018Z,18.70
2018-06-10T02:26:11.310Z,18.60
2018-06-10T02:28:39.634Z,18.60
2018-06-10T02:31:07.927Z,18.60
2018-06-10T02:33:36.262Z,18.60
2018-06-10T02:36:04.576Z,18.60
2018-06-10T02:38:32.855Z,18.50
2018-06-10T02:43:29.202Z,18.50
2018-06-10T02:45:57.535Z,18.50
2018-06-10T02:48:25.823Z,18.50
2018-06-10T02:50:54.146Z,18.50
2018-06-10T02:53:22.442Z,18.60
2018-06-10T02:55:50.769Z,18.50
2018-06-10T02:58:19.061Z,18.50
2018-06-10T03:00:47.383Z,18.50
2018-06-10T03:03:16.138Z,18.50
2018-06-10T03:05:44.427Z,18.50
2018-06-10T03:08:12.747Z,18.50
2018-06-10T03:10:41.117Z,18.50
2018-06-10T03:15:37.462Z,18.50
2018-06-10T03:18:05.789Z,18.50
2018-06-10T03:20:34.082Z,18.50
2018-06-10T03:23:02.402Z,18.50
2018-06-10T03:25:30.698Z,18.50
2018-06-10T03:27:59.032Z,18.50
2018-06-10T03:30:27.331Z,18.50
2018-06-10T03:32:55.662Z,18.40
2018-06-10T03:35:23.983Z,18.40
2018-06-10T03:37:52.267Z,18.40
2018-06-10T03:40:20.591Z,18.40
2018-06-10T03:42:48.879Z,18.40
2018-06-10T03:45:17.198Z,18.40
2018-06-10T03:47:45.519Z,18.40
2018-06-10T03:50:13.847Z,18.40
2018-06-10T03:52:42.142Z,18.40
2018-06-10T03:55:10.470Z,18.40
2018-06-10T03:57:38.758Z,18.40
2018-06-10T04:02:35.082Z,18.40
2018-06-10T04:05:03.532Z,18.40
2018-06-10T04:07:31.854Z,18.40
2018-06-10T04:10:00.150Z,18.40
2018-06-10T04:12:28.475Z,18.40
2018-06-10T04:14:56.770Z,18.40
2018-06-10T04:17:25.087Z,18.40
2018-06-10T04:19:53.378Z,18.40
2018-06-10T04:22:21.699Z,18.40
2018-06-10T04:24:49.994Z,18.50
2018-06-10T04:27:18.311Z,18.50
2018-06-10T04:29:46.608Z,18.50
2018-06-10T04:32:14.922Z,18.50
2018-06-10T04:34:43.214Z,18.50
2018-06-10T04:37:11.543Z,18.50
2018-06-10T04:39:39.834Z,18.60
2018-06-10T04:44:36.198Z,18.60
2018-06-10T04:47:04.554Z,18.60
2018-06-10T04:49:32.866Z,18.60
2018-06-10T04:52:01.192Z,18.60
2018-06-10T04:54:29.499Z,18.60
2018-06-10T04:56:57.831Z,18.60
2018-06-10T04:59:26.155Z,18.70
2018-06-10T05:01:54.603Z,18.70
2018-06-10T05:04:22.951Z,18.70
2018-06-10T05:06:51.271Z,18.70
2018-06-10T05:09:19.590Z,18.70
2018-06-10T05:11:47.882Z,18.80
2018-06-10T05:14:16.202Z,18.70
2018-06-10T05:16:44.538Z,18.80
2018-06-10T05:19:12.814Z,18.80
2018-06-10T05:21:41.147Z,18.90
2018-06-10T05:24:09.431Z,18.80
2018-06-10T05:26:37.753Z,18.90
2018-06-10T05:29:06.042Z,18.90
2018-06-10T05:31:34.353Z,18.90
2018-06-10T05:34:02.682Z,19.00
2018-06-10T05:36:31.001Z,19.00
2018-06-10T05:38:59.281Z,19.00
2018-06-10T05:41:27.615Z,19.10
2018-06-10T05:43:55.909Z,19.10
2018-06-10T05:46:24.223Z,19.20
2018-06-10T05:48:52.554Z,19.20
2018-06-10T05:51:20.930Z,19.30
2018-06-10T05:53:49.183Z,19.30
2018-06-10T05:56:17.479Z,19.30
2018-06-10T05:58:45.800Z,19.40
2018-06-10T06:01:14.100Z,19.50
2018-06-10T06:03:42.414Z,19.50
2018-06-10T06:06:10.711Z,19.50
2018-06-10T06:08:39.035Z,19.50
2018-06-10T06:11:07.353Z,19.60
2018-06-10T06:13:35.669Z,19.60
2018-06-10T06:16:03.982Z,19.70
2018-06-10T06:18:32.302Z,19.70
2018-06-10T06:21:00.591Z,19.80
2018-06-10T06:23:28.911Z,19.90
2018-06-10T06:25:57.196Z,19.90
2018-06-10T06:28:25.515Z,19.90
2018-06-10T06:30:53.794Z,20.00
2018-06-10T06:33:22.095Z,20.00
2018-06-10T06:35:50.406Z,20.00
2018-06-10T06:38:18.726Z,20.10
2018-06-10T06:40:47.046Z,20.10
2018-06-10T06:43:15.367Z,20.20
2018-06-10T06:45:43.682Z,20.30
2018-06-10T06:48:12.031Z,20.30
2018-06-10T06:50:40.358Z,20.40
2018-06-10T06:53:08.678Z,20.40
2018-06-10T06:55:36.975Z,20.50
2018-06-10T06:58:05.319Z,20.60
2018-06-10T07:00:33.615Z,20.60
2018-06-10T07:03:01.960Z,20.60
2018-06-10T07:05:30.258Z,20.70
2018-06-10T07:07:58.615Z,20.70
2018-06-10T07:10:26.903Z,20.70
2018-06-10T07:12:55.194Z,20.80
2018-06-10T07:15:23.515Z,20.80
2018-06-10T07:17:51.834Z,20.80
2018-06-10T07:20:20.154Z,20.90
2018-06-10T07:22:48.486Z,20.90
2018-06-10T07:25:16.795Z,20.90
2018-06-10T07:27:45.113Z,21.00
2018-06-10T07:30:13.411Z,21.00
2018-06-10T07:32:41.738Z,21.10
2018-06-10T07:35:10.066Z,21.10
2018-06-10T07:37:38.383Z,21.10
2018-06-10T07:40:06.859Z,21.10
2018-06-10T07:42:35.147Z,21.00
2018-06-10T07:45:03.466Z,21.00
2018-06-10T07:47:31.786Z,21.00
2018-06-10T07:50:00.107Z,21.00
2018-06-10T07:52:28.411Z,21.00
2018-06-10T07:54:56.743Z,21.10
2018-06-10T07:57:25.058Z,21.10
2018-06-10T07:59:53.371Z,21.10
2018-06-10T08:02:21.959Z,21.10
2018-06-10T08:04:50.250Z,21.00
2018-06-10T08:07:18.538Z,21.00
2018-06-10T08:09:46.868Z,21.00
2018-06-10T08:12:15.150Z,21.00
2018-06-10T08:14:43.474Z,21.00
2018-06-10T08:17:11.779Z,21.00
2018-06-10T08:19:40.110Z,21.00
2018-06-10T08:22:08.432Z,21.10
2018-06-10T08:24:36.738Z,21.10
2018-06-10T08:27:05.026Z,21.10
2018-06-10T08:29:33.356Z,21.10
2018-06-10T08:32:01.748Z,21.20
2018-06-10T08:34:30.011Z,21.30
2018-06-10T08:36:58.303Z,21.30
2018-06-10T08:39:26.646Z,21.30
2018-06-10T08:41:54.942Z,21.40
2018-06-10T08:44:23.275Z,21.40
2018-06-10T08:46:51.559Z,21.40
2018-06-10T08:49:19.874Z,21.40
2018-06-10T08:51:48.191Z,21.40
2018-06-10T08:54:16.514Z,21.30
2018-06-10T08:56:44.831Z,21.30
2018-06-10T08:59:13.174Z,21.30
2018-06-10T09:01:41.490Z,21.30
2018-06-10T09:04:09.790Z,21.20
2018-06-10T09:06:38.102Z,21.20
2018-06-10T09:09:09.179Z,21.20
2018-06-10T09:11:37.814Z,21.30
2018-06-10T09:14:06.107Z,21.30
2018-06-10T09:16:34.898Z,21.30
2018-06-10T09:19:03.207Z,21.30
2018-06-10T09:21:31.526Z,21.30
2018-06-10T09:23:59.848Z,21.30
2018-06-10T09:26:28.166Z,21.30
2018-06-10T09:28:56.489Z,21.30
2018-06-10T09:31:24.814Z,21.20
2018-06-10T09:33:53.123Z,21.20
2018-06-10T09:36:21.426Z,21.20
2018-06-10T09:38:49.746Z,21.20
2018-06-10T09:41:18.043Z,21.10
2018-06-10T09:43:46.371Z,21.10
2018-06-10T09:46:14.667Z,21.10
2018-06-10T09:48:43.018Z,21.00
2018-06-10T09:51:11.306Z,21.10
2018-06-10T09:53:39.634Z,21.10
2018-06-10T09:56:07.938Z,21.10
2018-06-10T09:58:36.270Z,21.20
2018-06-10T10:01:04.639Z,21.20
2018-06-10T10:03:32.970Z,21.30
2018-06-10T10:06:01.303Z,21.30
2018-06-10T10:08:29.602Z,21.40
2018-06-10T10:10:58.072Z,21.50
2018-06-10T10:13:26.374Z,21.60
2018-06-10T10:15:54.717Z,21.70
2018-06-10T10:18:23.006Z,21.90
2018-06-10T10:20:51.330Z,22.00
2018-06-10T10:23:19.662Z,22.00
2018-06-10T10:25:47.979Z,22.00
2018-06-10T10:28:16.274Z,22.00
2018-06-10T10:30:44.582Z,22.10
2018-06-10T10:33:12.906Z,22.10
2018-06-10T10:35:41.235Z,22.00
2018-06-10T10:38:09.523Z,22.10
2018-06-10T10:40:37.858Z,22.10
2018-06-10T10:43:06.178Z,22.10
2018-06-10T10:45:34.471Z,22.20
2018-06-10T10:48:02.846Z,22.20
2018-06-10T10:50:31.137Z,22.20
2018-06-10T10:52:59.467Z,22.30
2018-06-10T10:55:27.755Z,22.30
2018-06-10T10:57:56.075Z,22.30
2018-06-10T11:00:24.366Z,22.30
2018-06-10T11:02:52.699Z,22.40
2018-06-10T11:05:21.022Z,22.40
2018-06-10T11:07:49.322Z,22.40
2018-06-10T11:10:17.653Z,22.50
2018-06-10T11:12:45.939Z,22.50
2018-06-10T11:15:14.271Z,22.60
2018-06-10T11:17:42.613Z,22.60
2018-06-10T11:20:10.931Z,22.70
2018-06-10T11:22:39.318Z,22.70
2018-06-10T11:25:07.612Z,22.80
2018-06-10T11:27:35.939Z,22.80
2018-06-10T11:30:04.240Z,22.80
2018-06-10T11:32:32.559Z,22.90
2018-06-10T11:35:00.862Z,23.10
2018-06-10T11:37:29.182Z,23.20
2018-06-10T11:39:57.482Z,23.40
2018-06-10T11:42:25.864Z,23.50
2018-06-10T11:44:54.135Z,23.60
2018-06-10T11:47:22.503Z,23.70
2018-06-10T11:49:50.858Z,23.80
2018-06-10T11:52:19.154Z,23.90
2018-06-10T11:54:47.478Z,24.10
2018-06-10T11:57:15.774Z,24.20
2018-06-10T11:59:44.128Z,24.30
2018-06-10T12:02:12.428Z,24.40
2018-06-10T12:04:40.758Z,24.40
2018-06-10T12:07:09.072Z,24.30
2018-06-10T12:09:37.414Z,24.30
2018-06-10T12:12:05.708Z,24.20
2018-06-10T12:14:34.023Z,24.10
2018-06-10T12:17:02.322Z,24.10
2018-06-10T12:19:30.622Z,24.10
2018-06-10T12:21:58.944Z,24.10
2018-06-10T12:24:27.244Z,24.10
2018-06-10T12:26:55.567Z,24.10
2018-06-10T12:29:23.895Z,24.10
2018-06-10T12:31:52.174Z,24.00
2018-06-10T12:34:20.502Z,23.90
2018-06-10T12:36:48.838Z,23.90
2018-06-10T12:39:17.183Z,23.90
2018-06-10T12:41:45.495Z,23.80
2018-06-10T12:44:13.814Z,23.90
2018-06-10T12:46:42.115Z,23.90
2018-06-10T12:49:10.525Z,24.00
2018-06-10T12:51:38.747Z,24.10
2018-06-10T12:54:07.059Z,24.30
2018-06-10T12:56:35.354Z,24.30
2018-06-10T12:59:03.695Z,24.40
2018-06-10T13:01:32.016Z,24.30
2018-06-10T13:04:00.320Z,24.30
2018-06-10T13:06:28.639Z,24.30
2018-06-10T13:08:56.935Z,24.30
2018-06-10T13:11:25.254Z,24.20
2018-06-10T13:13:53.542Z,24.20
2018-06-10T13:16:22.199Z,24.20
2018-06-10T13:18:50.490Z,24.20
2018-06-10T13:21:18.779Z,24.20
2018-06-10T13:23:47.090Z,24.30
2018-06-10T13:26:15.389Z,24.30
2018-06-10T13:28:43.715Z,24.30
2018-06-10T13:31:12.162Z,24.40
2018-06-10T13:33:40.484Z,24.40
2018-06-10T13:36:08.804Z,24.40
2018-06-10T13:38:37.130Z,24.40
2018-06-10T13:41:05.475Z,24.40
2018-06-10T13:43:33.799Z,24.40
2018-06-10T13:46:02.132Z,24.50
2018-06-10T13:48:30.470Z,24.50
2018-06-10T13:50:58.763Z,24.60
2018-06-10T13:53:27.083Z,24.60
2018-06-10T13:55:55.407Z,24.70
2018-06-10T13:58:24.294Z,24.70
2018-06-10T14:00:52.638Z,24.80
2018-06-10T14:03:20.934Z,24.80
2018-06-10T14:05:49.227Z,24.80
2018-06-10T14:08:17.542Z,24.80
2018-06-10T14:10:45.826Z,24.90
2018-06-10T14:13:14.145Z,25.00
2018-06-10T14:15:42.438Z,25.00
2018-06-10T14:18:10.767Z,25.10
2018-06-10T14:20:39.066Z,25.10
2018-06-10T14:23:07.356Z,25.20
2018-06-10T14:25:35.683Z,25.20
2018-06-10T14:28:03.972Z,25.30
2018-06-10T14:30:32.298Z,25.20
2018-06-10T14:33:00.590Z,25.20
2018-06-10T14:35:28.887Z,25.20
2018-06-10T14:37:57.277Z,25.30
2018-06-10T14:40:25.515Z,25.40
2018-06-10T14:42:53.823Z,25.40
2018-06-10T14:45:22.134Z,25.40
2018-06-10T14:47:50.525Z,25.40
2018-06-10T14:50:18.806Z,25.30
2018-06-10T14:52:47.102Z,25.30
2018-06-10T14:55:15.427Z,25.20
2018-06-10T14:57:43.717Z,25.10
2018-06-10T15:00:12.062Z,25.10
2018-06-10T15:02:40.350Z,25.10
2018-06-10T15:05:08.679Z,25.10
2018-06-10T15:07:37.002Z,25.00
2018-06-10T15:10:05.310Z,25.00
2018-06-10T15:12:33.639Z,24.90
2018-06-10T15:15:01.931Z,24.80
2018-06-10T15:17:30.453Z,24.80
2018-06-10T15:19:58.746Z,24.80
2018-06-10T15:22:27.084Z,24.80
2018-06-10T15:24:55.374Z,24.90
2018-06-10T15:27:23.710Z,24.90
2018-06-10T15:29:52.023Z,25.00
2018-06-10T15:32:20.348Z,25.00
2018-06-10T15:34:48.671Z,25.00
2018-06-10T15:37:16.994Z,25.00
2018-06-10T15:39:45.326Z,25.00
2018-06-10T15:42:13.651Z,25.00
2018-06-10T15:44:41.975Z,25.00
2018-06-10T15:47:10.303Z,25.10
2018-06-10T15:49:38.656Z,25.10
2018-06-10T15:52:06.966Z,25.10
2018-06-10T15:54:35.302Z,25.20
2018-06-10T15:57:03.607Z,25.20
2018-06-10T15:59:32.610Z,25.20
2018-06-10T16:02:00.963Z,25.20
2018-06-10T16:04:29.359Z,25.20
2018-06-10T16:06:57.686Z,25.20
2018-06-10T16:09:25.970Z,25.20
2018-06-10T16:11:54.302Z,25.10
2018-06-10T16:14:22.595Z,25.10
2018-06-10T16:16:50.943Z,25.00
2018-06-10T16:19:19.240Z,25.00
2018-06-10T16:21:47.551Z,24.90
2018-06-10T16:24:15.875Z,24.80
2018-06-10T16:26:44.176Z,24.70
2018-06-10T16:29:12.495Z,24.70
2018-06-10T16:31:40.791Z,24.60
2018-06-10T16:34:09.126Z,24.60
2018-06-10T16:36:37.395Z,24.50
2018-06-10T16:39:08.342Z,24.50
2018-06-10T16:41:36.695Z,24.50
2018-06-10T16:44:05.120Z,24.50
2018-06-10T16:46:33.406Z,24.50
2018-06-10T16:49:01.751Z,24.50
2018-06-10T16:51:30.059Z,24.40
2018-06-10T16:53:58.406Z,24.40
2018-06-10T16:56:26.728Z,24.40
2018-06-10T16:58:55.014Z,24.30
2018-06-10T17:01:23.375Z,24.30
2018-06-10T17:03:51.698Z,24.30
2018-06-10T17:08:48.051Z,24.30
2018-06-10T17:11:16.346Z,24.30
2018-06-10T17:13:44.650Z,24.30
2018-06-10T17:16:13.039Z,24.40
2018-06-10T17:18:41.278Z,24.40
2018-06-10T17:21:09.620Z,24.40
2018-06-10T17:23:37.906Z,24.30
2018-06-10T17:26:06.230Z,24.30
2018-06-10T17:28:34.532Z,24.30
2018-06-10T17:31:02.850Z,24.30
2018-06-10T17:33:31.167Z,24.30
2018-06-10T17:35:59.497Z,24.20
2018-06-10T17:38:27.818Z,24.20
2018-06-10T17:40:56.110Z,24.20
2018-06-10T17:43:24.475Z,24.10
2018-06-10T17:45:52.774Z,24.10
2018-06-10T17:48:21.129Z,24.00
2018-06-10T17:50:49.395Z,24.00
2018-06-10T17:53:17.718Z,24.00
2018-06-10T17:55:46.014Z,23.90
2018-06-10T17:58:14.343Z,23.90
2018-06-10T18:00:42.709Z,23.80
2018-06-10T18:03:11.010Z,23.70
2018-06-10T18:05:39.303Z,23.70
2018-06-10T18:08:08.629Z,23.70
2018-06-10T18:10:37.845Z,23.60
2018-06-10T18:13:07.899Z,23.60
2018-06-10T18:15:36.447Z,23.50
2018-06-10T18:18:04.783Z,23.50
2018-06-10T18:20:33.126Z,23.40
2018-06-10T18:23:01.455Z,23.40
2018-06-10T18:25:30.331Z,23.30
2018-06-10T18:27:58.621Z,23.30
2018-06-10T18:30:26.937Z,23.30
2018-06-10T18:32:55.239Z,23.30
2018-06-10T18:36:01.632Z,23.20
2018-06-10T18:38:36.247Z,23.20
2018-06-10T18:41:11.014Z,23.10
2018-06-10T18:45:16.338Z,23.00
2018-06-10T18:47:50.178Z,23.00
2018-06-10T18:50:25.031Z,23.00
2018-06-10T18:55:34.490Z,22.80
2018-06-10T18:58:09.186Z,22.80
2018-06-10T19:00:44.510Z,22.80
2018-06-10T19:03:19.304Z,22.80
2018-06-10T19:05:54.346Z,22.80
2018-06-10T19:08:29.358Z,22.70
2018-06-10T19:11:46.706Z,22.70
2018-06-10T19:14:21.616Z,22.70
2018-06-10T19:16:56.515Z,22.70
2018-06-10T19:19:31.418Z,22.70
2018-06-10T19:22:06.342Z,22.70
2018-06-10T19:24:41.332Z,22.60
2018-06-10T19:27:16.366Z,22.60
2018-06-10T19:29:51.382Z,22.60
2018-06-10T19:32:26.269Z,22.50
2018-06-10T19:35:01.210Z,22.50
2018-06-10T19:37:36.143Z,22.50
2018-06-10T19:40:11.128Z,22.50
2018-06-10T19:45:05.048Z,22.40
2018-06-10T19:47:33.995Z,22.30
2018-06-10T19:50:38.255Z,22.30
2018-06-10T19:53:08.645Z,22.20
2018-06-10T19:55:39.003Z,22.20
2018-06-10T19:58:09.399Z,22.20
2018-06-10T20:00:39.963Z,22.10
2018-06-10T20:03:10.378Z,22.10
2018-06-10T20:05:40.735Z,22.00
2018-06-10T20:08:11.127Z,22.00
2018-06-10T20:10:41.503Z,22.00
2018-06-10T20:13:11.354Z,21.90
2018-06-10T20:15:41.215Z,21.90
2018-06-10T20:18:11.068Z,21.80
2018-06-10T20:20:40.911Z,21.80
2018-06-10T20:23:10.749Z,21.70
2018-06-10T20:25:40.602Z,21.70
2018-06-10T20:28:10.430Z,21.60
2018-06-10T20:30:40.911Z,21.60
2018-06-10T20:33:11.386Z,21.60
2018-06-10T20:35:41.816Z,21.50
2018-06-10T20:38:12.362Z,21.50
2018-06-10T20:40:42.757Z,21.50
2018-06-10T20:43:13.118Z,21.50
2018-06-10T20:45:43.517Z,21.40
2018-06-10T20:48:13.902Z,21.40
2018-06-10T20:50:44.295Z,21.30
2018-06-10T20:53:14.694Z,21.30
2018-06-10T20:55:45.078Z,21.30
2018-06-10T20:58:15.468Z,21.20
2018-06-10T21:00:45.897Z,21.20
2018-06-10T21:03:16.299Z,21.20
2018-06-10T21:05:46.687Z,21.20
2018-06-10T21:08:17.102Z,21.10
2018-06-10T21:10:47.659Z,21.10
2018-06-10T21:13:18.043Z,21.00
2018-06-10T21:15:48.514Z,21.00
2018-06-10T21:18:18.873Z,21.00
2018-06-10T21:20:49.247Z,20.90
2018-06-10T21:23:19.634Z,20.90
2018-06-10T21:25:50.031Z,20.90
2018-06-10T21:28:20.426Z,20.90
2018-06-10T21:30:50.794Z,20.80
2018-06-10T21:33:21.195Z,20.80
2018-06-10T21:35:51.581Z,20.80
2018-06-10T21:38:22.005Z,20.80
2018-06-10T21:40:52.386Z,20.70
2018-06-10T21:43:23.054Z,20.70
2018-06-10T21:45:53.475Z,20.60
2018-06-10T21:48:23.822Z,20.60
2018-06-10T21:50:54.498Z,20.60
2018-06-10T21:53:25.155Z,20.50
2018-06-10T21:55:55.853Z,20.50
2018-06-10T21:58:26.509Z,20.50
2018-06-10T22:00:57.723Z,20.50
2018-06-10T22:03:28.371Z,20.40
2018-06-10T22:05:59.059Z,20.40
2018-06-10T22:08:29.749Z,20.40
2018-06-10T22:11:00.375Z,20.30
2018-06-10T22:13:31.036Z,20.30
2018-06-10T22:16:01.457Z,20.30
2018-06-10T22:18:32.106Z,20.30
2018-06-10T22:21:02.503Z,20.20
2018-06-10T22:23:32.882Z,20.20
2018-06-10T22:26:03.571Z,20.20
2018-06-10T22:28:34.455Z,20.20
2018-06-10T22:31:05.116Z,20.20
2018-06-10T22:33:35.786Z,20.20
2018-06-10T22:36:06.144Z,20.10
2018-06-10T22:38:35.358Z,20.10
2018-06-10T22:41:05.722Z,20.10
2018-06-10T22:43:36.110Z,20.10
2018-06-10T22:46:06.782Z,20.10
2018-06-10T22:48:37.186Z,20.10
2018-06-10T22:51:07.838Z,20.10
2018-06-10T22:54:17.915Z,20.10
2018-06-10T22:56:48.598Z,20.00
2018-06-10T22:59:19.258Z,20.00
2018-06-10T23:01:49.660Z,20.00
2018-06-10T23:04:20.311Z,20.00
2018-06-10T23:06:50.694Z,20.00
2018-06-10T23:09:21.355Z,20.00
2018-06-10T23:11:52.035Z,20.00
2018-06-10T23:14:22.387Z,20.00
2018-06-10T23:16:53.071Z,20.00
2018-06-10T23:19:23.730Z,20.00
2018-06-10T23:21:54.430Z,20.00
2018-06-10T23:24:24.790Z,20.00
2018-06-10T23:26:55.484Z,19.90
2018-06-10T23:29:25.847Z,20.00
2018-06-10T23:31:56.543Z,20.00
2018-06-10T23:34:27.202Z,20.00
2018-06-10T23:36:57.898Z,20.00
2018-06-10T23:39:28.549Z,20.00
2018-06-10T23:41:58.932Z,19.90
2018-06-10T23:44:29.280Z,19.90
2018-06-10T23:46:59.863Z,19.90
2018-06-10T23:49:30.269Z,19.90
2018-06-10T23:52:00.649Z,19.90
2018-06-10T23:54:31.020Z,19.90
2018-06-10T23:57:01.410Z,19.90
2018-06-10T23:59:31.779Z,19.90
